AirNav   Air Wisconsin Up To $57,000 Bonus
 
 811 users online  

NH03 Granite Heliport
Hudson, New Hampshire, USA

GOING TO HUDSON?


FAA INFORMATION EFFECTIVE 02 JANUARY 2020

Location

FAA Identifier: NH03
Lat/Long: 42-47-39.0000N 071-22-04.0000W
42-47.650000N 071-22.066667W
42.7941667,-71.3677778
(estimated)
Elevation: 217 ft. / 66 m
From city: 3 miles NE of HUDSON, NH
Time zone: UTC -5 (UTC -4 during Daylight Saving Time)
Zip code: 03051

Heliport Operations

Heliport use: Private use. Permission required prior to landing
Activation date: 01/2017
Control tower: no
ARTCC: BOSTON CENTER
FSS: BANGOR FLIGHT SERVICE STATION
Attendance: 
Wind indicator: no
Segmented circle: no

Heliport Communications

WX AWOS-3PT at ASH (6 nm W): 125.1 (603-578-0473)
WX ASOS at MHT (9 nm N): 119.55 (603-621-1766)
WX ASOS at LWM (12 nm SE): PHONE 978-687-8017
WX ASOS at BED (20 nm S): 124.6 (781-274-9733)

Nearby radio navigation aids

VOR radial/distance  VOR name  Freq  Var
MHTr194/4.5MANCHESTER VOR/DME114.4015W
LWMr300/12.4LAWRENCE VOR/DME112.5015W
CONr175/27.1CONCORD VOR/DME112.9015W
PSMr249/29.3PEASE VOR/DME116.5016W
BOSr343/31.1BOSTON VOR/DME112.7016W
GDMr078/33.9GARDNER VOR/DME110.6014W

 
NDB name  Hdg/Dist  Freq  Var  ID
FITZY136/8.220915WMJ -- .---
ROLLINS239/34.826016WESG . ... --.

Heliport Services

Runway Information

Helipad H1

Dimensions: 30 x 30 ft. / 9 x 9 m
Surface: turf
Latitude: 42-47.650000N
Longitude: 071-22.066667W
Elevation: 217.0 ft.
Traffic pattern: leftleft

Heliport Ownership and Management from official FAA records

Ownership: Privately-owned
Owner: JOSEPH MIARA
12 BOCKERS ROAD
HUDSON, NH 03015-3115
Phone 978-375-0213

Additional Remarks

FOR CD CTC BOSTON APCH AT 603-594-5551.

Instrument Procedures

There are no published instrument procedures at NH03.

Some nearby airports with instrument procedures:

KASH - Boire Field Airport (6 nm W)
KMHT - Manchester Airport (9 nm N)
KLWM - Lawrence Municipal Airport (12 nm SE)
KBED - Laurence G Hanscom Field Airport (20 nm S)
6B6 - Minute Man Air Field (21 nm S)
 
Loc | Ops | Rwys | IFR | FBO | Links
Com | Nav | Svcs | Stats | Notes
Aerial photo
No photo
 
Airport distance calculator
Flying to Granite Heliport? Find the distance to fly.

From to NH03

Sunrise and sunset
Times for 26-Jan-2020
 Local
(UTC-5)
 Zulu
(UTC)
Morning civil twilight06:3611:36
Sunrise07:0712:07
Sunset16:4921:49
Evening civil twilight17:2022:20

Current date and time
Zulu (UTC)  26-Jan-2020 05:11:33
Local (UTC-5)  26-Jan-2020 00:11:33
 
METAR
KASH 
7nm W 
260456Z AUTO 30005KT 2 1/2SM -RA BR OVC003 05/05 A2970 RMK AO2 SLP063 T00500050 400560011 PNO $
KMHT 
9nm N 
260453Z 36005KT 1SM R35/P6000FT -RA BR OVC006 05/04 A2968 RMK AO2 SFC VIS 2 SLP068 P0003 T00500044 400610022
KLWM 
11nm SE 
260454Z AUTO VRB03KT 4SM BR OVC004 08/07 A2970 RMK AO2 RAB03E30 SLP056 P0001 T00830072 400830000 $
KBED 
20nm S 
260451Z AUTO 25006KT 3/4SM R11/4500VP6000FT BR OVC002 07/06 A2968 RMK AO2 SLP065 T00670056 400780006 $
TAF
KMHT 
9nm N 
260252Z 2603/2624 VRB05KT 4SM -RA BR OVC006 WS020/18040KT FM260400 28005KT P6SM BKN004 OVC006 FM261400 26008G15KT P6SM FEW100
KBED 
20nm S 
251726Z 2518/2618 06008KT 3SM BR OVC009 FM251900 09010G20KT P6SM VCSH OVC008 FM260100 09012G20KT 2SM +RA BR OVC005 WS020/13045KT FM260500 12006KT 5SM BR VCSH OVC005 FM260900 25005KT 5SM BR BKN015 FM261500 25009KT P6SM SCT040
NOTAMs
Click for the latest NOTAMs
NOTAMs are issued by the DoD/FAA and will open in a separate window not controlled by AirNav.

 

 
 

Would you like to see your business listed on this page?

 If your business provides an interesting product or service to pilots, flight crews, aircraft, or users of the Granite Heliport, you should consider listing it here.  To start the listing process, click on the button below
 
Add a business
 

Other Pages about Granite Heliport

Update a link
 
Copyright © AirNav, LLC. All rights reserved. Privacy Policy  Contact